Time;durP1;ratioP1;P1;durP2;ratioP2;P2;SDS_P1;SDS_P2;PMS_P1;PMS_P2;Temp;Humidity;BMP_temperature;BMP_pressure;BME280_temperature;BME280_humidity;BME280_pressure;Samples;Min_cycle;Max_cycle;Signal;HPM_P1;HPM_P2
2023/02/14 00:01:08;;;;;;;1.58;0.20;;;;;;;4.92;64.27;102965.94;5055186;28;20053;-68
2023/02/14 00:03:35;;;;;;;0.40;0.20;;;;;;;4.90;64.12;102971.88;5055631;28;20049;-68
2023/02/14 00:06:06;;;;;;;0.60;0.20;;;;;;;4.90;64.14;102967.56;5057747;28;20135;-68
2023/02/14 00:08:33;;;;;;;0.93;0.50;;;;;;;4.90;64.24;102982.22;5060578;28;20531;-69
2023/02/14 00:11:00;;;;;;;0.82;0.20;;;;;;;4.89;64.35;102990.78;5059801;28;20484;-68
2023/02/14 00:13:27;;;;;;;1.48;0.20;;;;;;;4.87;64.32;102989.88;5061617;28;20044;-68
2023/02/14 00:15:55;;;;;;;1.55;0.20;;;;;;;4.85;64.32;102987.19;5059912;28;20064;-68
2023/02/14 00:19:01;;;;;;;0.55;0.20;;;;;;;4.84;64.30;102993.22;5061531;28;20139;-68
2023/02/14 00:21:09;;;;;;;2.05;0.20;;;;;;;4.82;64.14;102994.84;5060832;28;20629;-69
2023/02/14 00:23:36;;;;;;;0.40;0.20;;;;;;;4.80;64.28;102995.59;5059694;28;20048;-68
2023/02/14 00:26:02;;;;;;;0.47;0.10;;;;;;;4.79;64.14;102986.09;5060301;28;20048;-68
2023/02/14 00:28:29;;;;;;;0.90;0.20;;;;;;;4.79;64.22;102986.09;5059792;28;20055;-68
2023/02/14 00:30:58;;;;;;;1.33;0.20;;;;;;;4.76;64.27;102989.44;5059094;28;20071;-68
2023/02/14 00:33:25;;;;;;;0.25;0.10;;;;;;;4.76;64.35;102993.72;5057568;28;20048;-68
2023/02/14 00:35:52;;;;;;;1.48;0.22;;;;;;;4.73;64.30;103010.91;5061443;28;20051;-68
2023/02/14 00:38:19;;;;;;;0.80;0.20;;;;;;;4.70;64.35;103009.91;5058345;28;20806;-69
2023/02/14 00:40:46;;;;;;;0.57;0.20;;;;;;;4.69;64.45;103008.09;5059988;28;20598;-68
2023/02/14 00:43:13;;;;;;;1.13;0.20;;;;;;;4.67;64.57;103008.06;5058135;28;20048;-69
2023/02/14 00:45:39;;;;;;;1.55;0.30;;;;;;;4.66;64.44;103003.69;5061197;28;20058;-68
2023/02/14 00:48:08;;;;;;;0.57;0.10;;;;;;;4.66;64.36;103008.84;5053267;28;20052;-68
2023/02/14 00:50:35;;;;;;;1.20;0.20;;;;;;;4.63;64.42;103007.84;5059776;28;20044;-69
2023/02/14 00:53:01;;;;;;;1.35;0.28;;;;;;;4.63;64.61;103008.72;5057326;28;20049;-69
2023/02/14 00:55:28;;;;;;;1.80;0.20;;;;;;;4.62;64.31;103016.44;5058618;28;20063;-68
2023/02/14 00:57:55;;;;;;;1.35;0.22;;;;;;;4.59;64.62;103006.84;5059011;28;20654;-68
2023/02/14 01:00:23;;;;;;;0.85;0.20;;;;;;;4.57;64.66;103015.38;5056028;28;20060;-68
2023/02/14 01:02:49;;;;;;;1.88;0.20;;;;;;;4.55;64.43;103010.09;5059219;28;20052;-68
2023/02/14 01:05:18;;;;;;;1.17;0.10;;;;;;;4.52;64.65;103017.75;5056336;28;20419;-68
2023/02/14 01:07:45;;;;;;;2.17;0.22;;;;;;;4.51;64.62;103013.41;5056175;28;20057;-68
2023/02/14 01:10:12;;;;;;;0.50;0.30;;;;;;;4.48;64.75;103013.28;5057309;28;20051;-68
2023/02/14 01:12:39;;;;;;;0.73;0.20;;;;;;;4.47;64.54;103001.16;5055244;28;20420;-69
2023/02/14 01:15:06;;;;;;;0.57;0.17;;;;;;;4.41;64.95;102991.44;5053647;28;20052;-68
2023/02/14 01:17:33;;;;;;;1.63;0.10;;;;;;;4.43;64.50;103009.59;5055822;28;20049;-68
2023/02/14 01:20:00;;;;;;;2.08;0.17;;;;;;;4.42;64.80;103002.66;5058937;28;20044;-68
2023/02/14 01:22:28;;;;;;;0.47;0.20;;;;;;;4.40;64.62;103014.66;5056408;28;20060;-68
2023/02/14 01:24:55;;;;;;;1.15;0.20;;;;;;;4.37;64.90;102999.00;5060501;28;20641;-68
2023/02/14 01:27:22;;;;;;;0.98;0.20;;;;;;;4.37;64.69;103006.75;5056632;28;20056;-68
2023/02/14 01:29:49;;;;;;;3.67;1.30;;;;;;;4.29;64.69;102991.78;5057335;28;20052;-68
2023/02/14 01:32:16;;;;;;;1.75;0.20;;;;;;;4.33;64.89;103007.47;5057073;28;20115;-68
2023/02/14 01:34:43;;;;;;;0.55;0.20;;;;;;;4.31;64.71;103004.78;5055252;28;20055;-68
2023/02/14 01:37:10;;;;;;;0.25;0.10;;;;;;;4.33;64.79;103029.03;5055544;28;20408;-68
2023/02/14 01:39:38;;;;;;;1.13;0.20;;;;;;;4.32;64.97;103027.25;5057112;28;20045;-68
2023/02/14 01:42:05;;;;;;;1.02;0.10;;;;;;;4.31;64.81;103029.78;5059288;28;20833;-69
2023/02/14 01:44:59;;;;;;;0.20;0.10;;;;;;;4.29;64.90;103025.41;5062645;28;20048;-70
2023/02/14 01:47:28;;;;;;;3.83;0.20;;;;;;;4.27;64.72;103021.00;5063093;28;20045;-68
2023/02/14 01:49:59;;;;;;;0.43;0.10;;;;;;;4.17;64.95;103011.94;5062771;28;20128;-69
2023/02/14 01:52:31;;;;;;;0.70;0.13;;;;;;;4.23;64.60;103030.31;5063436;28;20420;-68
2023/02/14 01:55:02;;;;;;;0.47;0.20;;;;;;;4.22;65.05;103036.31;5062556;28;20574;-68
2023/02/14 01:57:36;;;;;;;1.67;0.10;;;;;;;4.20;65.05;103040.53;5064186;28;20053;-68
2023/02/14 02:02:52;;;;;;;0.20;0.20;;;;;;;4.16;64.88;103043.81;5061824;28;20206;-68
2023/02/14 02:05:22;;;;;;;1.67;0.13;;;;;;;4.12;64.93;103048.78;5061911;28;20076;-68
2023/02/14 02:07:50;;;;;;;1.85;0.20;;;;;;;4.11;65.04;103045.31;5058500;28;20136;-68
2023/02/14 02:10:19;;;;;;;1.00;0.20;;;;;;;4.05;64.92;103037.28;5060334;28;20045;-68
2023/02/14 02:12:48;;;;;;;2.83;0.30;;;;;;;4.06;65.31;103051.97;5062080;28;20048;-68
2023/02/14 02:15:15;;;;;;;0.45;0.10;;;;;;;4.04;65.28;103051.91;5063152;28;20055;-68
2023/02/14 02:17:52;;;;;;;0.88;0.20;;;;;;;4.02;65.20;103050.06;5059231;28;20045;-69
2023/02/14 02:20:49;;;;;;;1.60;0.20;;;;;;;3.99;65.41;103048.22;5062236;28;20048;-68
2023/02/14 02:24:07;;;;;;;0.20;0.20;;;;;;;3.98;65.14;103045.56;5059184;28;20048;-68
2023/02/14 02:27:25;;;;;;;1.80;0.20;;;;;;;3.95;65.25;103048.91;5065011;28;20136;-68
2023/02/14 02:30:39;;;;;;;0.98;0.20;;;;;;;3.91;65.34;103048.72;5061231;28;20048;-69
2023/02/14 02:33:33;;;;;;;0.65;0.28;;;;;;;3.89;65.42;103058.09;5061788;28;20049;-68
2023/02/14 02:36:30;;;;;;;0.60;0.20;;;;;;;3.86;65.36;103065.69;5059858;28;20051;-68
2023/02/14 02:39:10;;;;;;;2.80;0.20;;;;;;;3.85;65.42;103061.38;5060154;28;20049;-68
2023/02/14 02:41:49;;;;;;;0.98;0.47;;;;;;;3.82;65.17;103068.16;5062069;28;20052;-69
2023/02/14 02:44:19;;;;;;;1.25;0.25;;;;;;;3.79;65.61;103065.44;5062093;28;20044;-68
2023/02/14 02:46:55;;;;;;;1.40;0.20;;;;;;;3.77;65.79;103067.03;5062498;28;20119;-68
2023/02/14 02:55:14;;;;;;;0.40;0.10;;;;;;;3.70;65.86;103077.03;5061923;28;20412;-68
2023/02/14 02:57:43;;;;;;;3.50;0.30;;;;;;;3.68;65.45;103070.91;5058403;28;20404;-68
2023/02/14 03:00:13;;;;;;;1.33;0.30;;;;;;;3.67;65.76;103071.72;5061489;28;20398;-68
2023/02/14 03:05:29;;;;;;;1.55;0.22;;;;;;;3.64;65.65;103072.44;5059418;28;20052;-68
2023/02/14 03:07:58;;;;;;;1.33;0.20;;;;;;;3.60;65.73;103067.97;5061157;28;20127;-68
2023/02/14 03:10:27;;;;;;;0.98;0.20;;;;;;;3.59;65.87;103073.97;5056357;28;20059;-68
2023/02/14 03:13:30;;;;;;;2.90;0.20;;;;;;;3.59;65.78;103082.59;5059511;28;20041;-69
2023/02/14 03:16:11;;;;;;;2.33;0.30;;;;;;;3.59;65.75;103084.28;5060243;28;20539;-69
2023/02/14 03:21:43;;;;;;;3.97;0.20;;;;;;;3.58;66.14;103077.34;5062997;28;20051;-69
2023/02/14 03:24:24;;;;;;;1.90;0.20;;;;;;;3.57;66.36;103089.38;5060670;28;20053;-68
2023/02/14 03:27:01;;;;;;;0.40;0.20;;;;;;;3.57;66.01;103083.31;5058038;28;20041;-69
2023/02/14 03:29:37;;;;;;;0.57;0.20;;;;;;;3.56;65.97;103089.31;5062650;28;20047;-69
2023/02/14 03:32:11;;;;;;;1.02;0.20;;;;;;;3.56;65.95;103092.78;5057719;28;20107;-69
2023/02/14 03:34:48;;;;;;;1.02;0.30;;;;;;;3.56;66.39;103097.06;5055842;28;20078;-69
2023/02/14 03:37:20;;;;;;;0.93;0.63;;;;;;;3.56;66.16;103092.78;5057861;28;20076;-69
2023/02/14 03:39:58;;;;;;;1.45;0.20;;;;;;;3.56;66.09;103097.97;5058184;28;20055;-69
2023/02/14 03:42:30;;;;;;;3.08;0.73;;;;;;;3.58;66.29;103098.00;5060164;28;20044;-70
2023/02/14 03:45:00;;;;;;;1.25;0.20;;;;;;;3.56;65.95;103099.66;5058442;28;20047;-69
2023/02/14 03:47:31;;;;;;;3.15;0.30;;;;;;;3.44;66.64;103075.81;5056642;28;20049;-71
2023/02/14 03:50:02;;;;;;;2.65;0.20;;;;;;;3.56;66.40;103094.50;5061885;28;20051;-71
2023/02/14 03:52:33;;;;;;;0.73;0.40;;;;;;;3.56;66.36;103104.81;5060444;28;20179;-67
2023/02/14 03:55:04;;;;;;;2.65;0.20;;;;;;;3.55;66.22;103095.28;5058387;28;20053;-67
2023/02/14 03:57:38;;;;;;;1.75;0.20;;;;;;;3.53;66.21;103099.47;5059735;28;20164;-67
2023/02/14 04:00:07;;;;;;;4.53;0.35;;;;;;;3.53;66.27;103107.25;5061045;28;20048;-67
2023/02/14 04:02:37;;;;;;;1.20;0.30;;;;;;;3.50;66.31;103096.75;5063348;28;20040;-67
2023/02/14 04:05:09;;;;;;;2.17;0.20;;;;;;;3.48;66.67;103112.22;5061761;28;20041;-67
2023/02/14 04:07:45;;;;;;;0.25;0.15;;;;;;;3.48;66.42;103113.91;5058177;28;20048;-67
2023/02/14 04:10:13;;;;;;;0.50;0.20;;;;;;;3.47;66.58;103112.13;5057944;28;20040;-67
2023/02/14 04:12:40;;;;;;;0.20;0.20;;;;;;;3.46;66.34;103110.34;5059764;28;20048;-66
2023/02/14 04:15:07;;;;;;;1.40;0.22;;;;;;;3.46;66.75;103113.81;5057256;28;20045;-67
2023/02/14 04:20:19;;;;;;;0.90;0.40;;;;;;;3.45;66.58;103109.47;5061762;28;20105;-66
2023/02/14 04:22:46;;;;;;;2.47;0.20;;;;;;;3.46;66.74;103116.41;5056952;28;20045;-66
2023/02/14 04:25:15;;;;;;;0.52;0.20;;;;;;;3.45;66.83;103114.66;5061064;28;20057;-66
2023/02/14 04:27:42;;;;;;;0.50;0.20;;;;;;;3.48;66.51;103119.06;5061287;28;20056;-67
2023/02/14 04:30:11;;;;;;;0.68;0.20;;;;;;;3.46;66.30;103115.53;5061546;28;20059;-67
2023/02/14 04:32:38;;;;;;;0.68;0.30;;;;;;;3.47;66.56;103122.44;5060434;28;20044;-67
2023/02/14 04:35:06;;;;;;;2.75;0.30;;;;;;;3.46;66.69;103126.75;5058903;28;20041;-67
2023/02/14 04:37:33;;;;;;;1.20;0.20;;;;;;;3.47;66.50;103119.88;5060125;28;20041;-67
2023/02/14 04:40:00;;;;;;;1.35;0.40;;;;;;;3.45;66.55;103121.50;5059478;28;20139;-67
2023/02/14 04:42:28;;;;;;;1.50;0.20;;;;;;;3.47;66.91;103123.38;5060704;28;20044;-66
2023/02/14 04:44:55;;;;;;;0.93;0.20;;;;;;;3.47;66.69;103123.38;5060932;28;20056;-67
2023/02/14 04:47:22;;;;;;;1.27;0.20;;;;;;;3.47;66.70;103133.69;5059039;28;20419;-67
2023/02/14 04:49:49;;;;;;;1.27;0.30;;;;;;;3.46;66.83;103137.06;5062389;28;20045;-67
2023/02/14 04:52:16;;;;;;;2.13;0.55;;;;;;;3.45;66.68;103135.31;5060099;28;20036;-67
2023/02/14 04:54:43;;;;;;;0.93;0.30;;;;;;;3.47;66.56;103132.78;5058662;28;20615;-67
2023/02/14 04:57:10;;;;;;;0.63;0.20;;;;;;;3.48;66.62;103137.16;5065070;28;20045;-66
2023/02/14 04:59:38;;;;;;;4.43;0.30;;;;;;;3.46;66.92;103126.75;5065405;28;20048;-66
2023/02/14 05:02:05;;;;;;;0.47;0.20;;;;;;;3.48;66.62;103132.00;5063853;28;20045;-65
2023/02/14 05:04:32;;;;;;;1.45;0.75;;;;;;;3.48;67.07;103137.16;5061492;28;20045;-66
2023/02/14 05:06:59;;;;;;;0.43;0.20;;;;;;;3.47;66.96;103127.63;5065222;28;20070;-66
2023/02/14 05:09:26;;;;;;;1.05;0.20;;;;;;;3.47;66.87;103133.69;5065405;28;20048;-66
2023/02/14 05:11:52;;;;;;;1.52;0.20;;;;;;;3.48;66.94;103134.59;5061008;28;20469;-66
2023/02/14 05:14:19;;;;;;;1.58;0.20;;;;;;;3.48;67.22;103130.28;5062952;28;20047;-66
2023/02/14 05:16:47;;;;;;;1.27;0.20;;;;;;;3.47;66.77;103127.63;5057962;28;20036;-67
2023/02/14 05:19:14;;;;;;;1.88;0.20;;;;;;;3.46;67.08;103131.91;5062467;28;20041;-66
2023/02/14 05:21:41;;;;;;;0.63;0.20;;;;;;;3.47;67.08;103127.63;5058740;28;20052;-66
2023/02/14 05:24:08;;;;;;;0.90;0.25;;;;;;;3.47;67.03;103143.13;5063673;28;20041;-66
2023/02/14 05:26:35;;;;;;;0.60;0.20;;;;;;;3.41;67.07;103128.22;5058661;28;20047;-66
2023/02/14 05:29:02;;;;;;;1.98;0.20;;;;;;;3.45;66.99;103144.78;5062565;28;20060;-66
2023/02/14 05:31:29;;;;;;;0.50;0.20;;;;;;;3.44;66.90;103141.28;5057888;28;20041;-66
2023/02/14 05:33:57;;;;;;;0.82;0.28;;;;;;;3.44;66.90;103133.53;5058303;28;20045;-66
2023/02/14 05:36:24;;;;;;;0.65;0.20;;;;;;;3.43;66.97;103142.09;5054582;28;20049;-66
2023/02/14 05:38:51;;;;;;;0.50;0.32;;;;;;;3.42;66.87;103142.91;5060229;28;20055;-66
2023/02/14 05:41:18;;;;;;;1.65;0.40;;;;;;;3.42;67.14;103148.09;5058466;28;20830;-66
2023/02/14 05:43:44;;;;;;;1.58;0.57;;;;;;;3.42;66.99;103150.66;5057944;28;20041;-66
2023/02/14 05:46:11;;;;;;;1.77;0.20;;;;;;;3.41;66.41;103153.16;5061681;28;20049;-66
2023/02/14 05:48:38;;;;;;;1.38;0.93;;;;;;;3.41;67.23;103148.00;5061767;28;20469;-66
2023/02/14 05:51:08;;;;;;;1.80;0.20;;;;;;;3.40;66.65;103146.25;5063862;28;20057;-65
2023/02/14 05:53:35;;;;;;;1.02;0.20;;;;;;;3.40;66.74;103141.94;5060842;28;20048;-67
2023/02/14 05:56:01;;;;;;;0.30;0.20;;;;;;;3.40;66.65;103144.53;5058708;28;20061;-65
2023/02/14 05:58:28;;;;;;;1.00;0.20;;;;;;;3.36;66.93;103148.66;5062568;28;20051;-65
2023/02/14 06:00:56;;;;;;;1.60;0.30;;;;;;;3.36;66.63;103146.09;5059575;28;20055;-65
2023/02/14 06:03:23;;;;;;;3.90;0.20;;;;;;;3.34;66.74;103146.81;5058393;28;20049;-65
2023/02/14 06:05:50;;;;;;;0.20;0.20;;;;;;;3.35;66.74;103148.56;5057286;28;20040;-66
2023/02/14 06:08:18;;;;;;;3.10;0.20;;;;;;;3.33;66.74;103150.19;5057591;28;20040;-65
2023/02/14 06:10:46;;;;;;;1.33;0.20;;;;;;;3.31;67.03;103141.50;5063118;28;20045;-65
2023/02/14 06:13:12;;;;;;;0.77;0.20;;;;;;;3.30;66.57;103143.22;5061331;28;21146;-66
2023/02/14 06:15:39;;;;;;;0.60;0.20;;;;;;;3.28;66.74;103142.25;5063077;28;20400;-66
2023/02/14 06:18:06;;;;;;;0.77;0.30;;;;;;;3.27;66.98;103153.38;5064962;28;20485;-67
2023/02/14 06:20:33;;;;;;;0.50;0.22;;;;;;;3.26;66.93;103145.56;5061710;28;20044;-66
2023/02/14 06:23:01;;;;;;;0.30;0.20;;;;;;;3.25;66.74;103143.78;5059751;28;20045;-66
2023/02/14 06:25:29;;;;;;;0.60;0.20;;;;;;;3.24;66.83;103144.56;5060737;28;20065;-66
2023/02/14 06:27:57;;;;;;;0.52;0.20;;;;;;;3.21;66.84;103140.16;5059468;28;20412;-66
2023/02/14 06:30:24;;;;;;;1.30;0.30;;;;;;;3.21;67.14;103136.69;5062926;28;20156;-66
2023/02/14 06:32:51;;;;;;;3.22;0.40;;;;;;;3.20;67.04;103137.50;5060487;28;20040;-67
2023/02/14 06:35:18;;;;;;;0.90;0.20;;;;;;;3.17;67.29;103140.81;5060833;28;20051;-66
2023/02/14 06:37:45;;;;;;;2.25;0.30;;;;;;;3.16;66.78;103146.81;5058408;28;21491;-66
2023/02/14 06:40:13;;;;;;;1.00;0.28;;;;;;;3.15;67.06;103148.47;5062251;28;20071;-67
2023/02/14 06:42:43;;;;;;;4.55;1.20;;;;;;;3.14;67.35;103153.56;5060072;28;20090;-66
2023/02/14 06:45:10;;;;;;;3.13;1.13;;;;;;;3.11;67.13;103151.72;5065388;28;20067;-66
2023/02/14 06:47:37;;;;;;;4.05;2.25;;;;;;;3.10;67.13;103146.47;5061490;28;20040;-66
2023/02/14 06:50:05;;;;;;;1.70;0.73;;;;;;;3.06;67.19;103145.44;5060015;28;20072;-66
2023/02/14 06:52:32;;;;;;;1.88;0.80;;;;;;;3.09;67.46;103147.28;5057345;28;20683;-66
2023/02/14 06:54:59;;;;;;;2.97;0.43;;;;;;;3.08;67.34;103163.59;5057673;28;20515;-66
2023/02/14 06:57:25;;;;;;;3.92;2.83;;;;;;;3.04;67.47;103153.91;5058380;28;20086;-66
2023/02/14 06:59:54;;;;;;;1.98;0.80;;;;;;;3.07;67.26;103159.22;5059016;28;20068;-66
2023/02/14 07:02:21;;;;;;;2.03;0.50;;;;;;;3.06;67.45;103157.47;5055772;28;20040;-66
2023/02/14 07:04:48;;;;;;;5.25;0.70;;;;;;;3.05;67.58;103158.28;5058684;28;20040;-66
2023/02/14 07:07:14;;;;;;;2.30;0.40;;;;;;;3.05;67.78;103155.72;5061773;28;20041;-67
2023/02/14 07:09:41;;;;;;;1.30;0.40;;;;;;;3.05;67.58;103155.72;5059368;28;20440;-67
2023/02/14 07:12:08;;;;;;;0.65;0.40;;;;;;;3.05;67.67;103153.13;5063847;28;20041;-67
2023/02/14 07:14:35;;;;;;;2.85;1.20;;;;;;;3.03;67.67;103152.16;5060369;28;20060;-67
2023/02/14 07:17:03;;;;;;;1.20;0.30;;;;;;;3.04;67.68;103156.50;5055083;28;20063;-67
2023/02/14 07:19:30;;;;;;;1.80;0.38;;;;;;;3.05;67.95;103164.34;5057005;28;20051;-66
2023/02/14 07:21:57;;;;;;;1.67;0.63;;;;;;;3.06;67.91;103158.34;5059638;28;20045;-66
2023/02/14 07:24:24;;;;;;;2.95;0.40;;;;;;;3.07;67.92;103156.66;5058157;28;20042;-67
2023/02/14 07:26:51;;;;;;;0.80;0.40;;;;;;;3.09;67.91;103170.53;5056108;28;20515;-67
2023/02/14 07:29:17;;;;;;;4.05;0.70;;;;;;;3.10;68.21;103173.22;5055429;28;20053;-66
2023/02/14 07:31:44;;;;;;;1.33;0.40;;;;;;;3.11;68.23;103171.50;5056755;28;20444;-67
2023/02/14 07:34:12;;;;;;;1.13;0.40;;;;;;;3.08;68.53;103168.78;5058589;28;20044;-66
2023/02/14 07:36:39;;;;;;;3.40;0.30;;;;;;;3.15;68.39;103176.88;5056781;28;20045;-67
2023/02/14 07:39:06;;;;;;;0.82;0.40;;;;;;;3.18;68.37;103173.56;5059309;28;20687;-66
2023/02/14 07:41:33;;;;;;;1.17;0.40;;;;;;;3.21;68.47;103178.00;5061393;28;20507;-68
2023/02/14 07:44:00;;;;;;;1.58;0.50;;;;;;;3.21;68.49;103175.44;5060135;28;20051;-69
2023/02/14 07:46:27;;;;;;;0.70;0.40;;;;;;;3.25;69.07;103180.84;5056175;28;20040;-67
2023/02/14 07:48:54;;;;;;;4.35;0.50;;;;;;;3.28;68.83;103173.22;5057150;28;20052;-68
2023/02/14 07:51:22;;;;;;;0.82;0.40;;;;;;;3.32;68.75;103176.84;5060580;28;20056;-68
2023/02/14 07:53:49;;;;;;;1.75;0.32;;;;;;;3.35;69.14;103179.59;5060362;28;20051;-68
2023/02/14 07:56:16;;;;;;;5.22;0.55;;;;;;;3.39;69.08;103178.94;5061177;28;20048;-68
2023/02/14 07:58:43;;;;;;;5.00;0.40;;;;;;;3.43;69.24;103183.44;5059004;28;20045;-67
2023/02/14 08:01:09;;;;;;;1.33;0.40;;;;;;;3.48;69.27;103186.25;5058318;28;20085;-65
2023/02/14 08:03:36;;;;;;;0.60;0.30;;;;;;;3.53;69.16;103180.50;5060523;28;20404;-68
2023/02/14 08:06:03;;;;;;;0.68;0.40;;;;;;;3.58;69.18;103180.72;5057262;28;20041;-65
2023/02/14 08:08:32;;;;;;;3.33;0.38;;;;;;;3.62;69.21;103180.06;5058301;28;20049;-68
2023/02/14 08:10:59;;;;;;;2.72;0.40;;;;;;;3.68;69.27;103176.91;5054345;28;20065;-68
2023/02/14 08:13:25;;;;;;;1.42;0.40;;;;;;;3.65;69.05;103162.13;5056749;28;20049;-67
2023/02/14 08:16:05;;;;;;;0.88;0.77;;;;;;;3.81;69.20;103176.66;5058526;28;20047;-67
2023/02/14 08:18:35;;;;;;;1.77;0.40;;;;;;;3.89;69.17;103177.03;5060557;28;20583;-67
2023/02/14 08:21:02;;;;;;;4.40;1.20;;;;;;;3.97;68.99;103189.50;5057200;28;20047;-66
2023/02/14 08:23:29;;;;;;;1.42;0.35;;;;;;;4.03;68.78;103178.56;5061254;28;20044;-66
2023/02/14 08:25:57;;;;;;;2.13;0.40;;;;;;;4.11;69.17;103177.22;5059209;28;20048;-68
2023/02/14 08:28:25;;;;;;;0.55;0.45;;;;;;;4.17;69.05;103181.78;5059762;28;20574;-68
2023/02/14 08:30:53;;;;;;;2.35;0.55;;;;;;;4.24;69.21;103179.56;5062805;28;20044;-68
2023/02/14 08:33:20;;;;;;;2.47;0.40;;;;;;;4.32;68.94;103177.31;5062057;28;20138;-67
2023/02/14 08:35:47;;;;;;;1.48;0.32;;;;;;;4.38;68.80;103176.72;5059640;28;20045;-67
2023/02/14 08:38:14;;;;;;;3.25;0.40;;;;;;;4.49;68.93;103191.03;5064276;28;20059;-68
2023/02/14 08:40:41;;;;;;;2.00;0.90;;;;;;;4.56;68.83;103177.56;5060451;28;20060;-68
2023/02/14 08:43:10;;;;;;;1.23;0.40;;;;;;;4.60;68.71;103171.69;5065275;28;20485;-67
2023/02/14 08:45:37;;;;;;;3.50;0.50;;;;;;;4.71;69.05;103174.75;5063224;28;20048;-67
2023/02/14 08:48:06;;;;;;;3.40;0.35;;;;;;;4.77;68.50;103179.31;5066092;28;20045;-68
2023/02/14 08:50:34;;;;;;;0.85;0.25;;;;;;;4.86;68.86;103182.31;5061165;28;20049;-68
2023/02/14 08:53:00;;;;;;;1.40;0.55;;;;;;;4.92;68.24;103182.56;5064213;28;20123;-68
2023/02/14 08:55:27;;;;;;;2.50;0.40;;;;;;;4.99;68.52;103182.03;5063910;28;20045;-67
2023/02/14 08:57:55;;;;;;;1.42;0.38;;;;;;;5.06;68.73;103184.03;5065538;28;20051;-67
2023/02/14 09:00:24;;;;;;;3.80;0.43;;;;;;;5.12;68.47;103189.53;5064773;28;20049;-68
2023/02/14 09:02:51;;;;;;;4.53;0.40;;;;;;;5.19;68.19;103188.06;5063916;28;20576;-67
2023/02/14 09:05:19;;;;;;;4.28;0.40;;;;;;;5.24;68.35;103186.56;5064302;28;20071;-66
2023/02/14 09:07:46;;;;;;;6.07;0.50;;;;;;;5.30;68.32;103186.81;5060878;28;20037;-66
2023/02/14 09:10:13;;;;;;;0.50;0.40;;;;;;;5.36;68.11;103189.66;5063775;28;20071;-67
2023/02/14 09:12:40;;;;;;;2.92;0.50;;;;;;;5.42;67.92;103173.47;5065455;28;20059;-67
2023/02/14 09:15:08;;;;;;;8.27;0.88;;;;;;;5.48;68.09;103170.25;5065600;28;20052;-67
2023/02/14 09:17:37;;;;;;;2.22;0.30;;;;;;;5.52;68.04;103177.31;5060949;28;20044;-68
2023/02/14 09:20:05;;;;;;;2.90;0.40;;;;;;;5.60;67.89;103191.47;5058969;28;20059;-68
2023/02/14 09:22:32;;;;;;;1.45;0.50;;;;;;;5.66;67.96;103190.84;5062794;28;20041;-67
2023/02/14 09:24:59;;;;;;;5.80;0.40;;;;;;;5.71;68.04;103190.22;5057715;28;20045;-67
2023/02/14 09:27:26;;;;;;;8.90;0.40;;;;;;;5.77;67.91;103189.56;5063440;28;20044;-67
2023/02/14 09:29:53;;;;;;;5.75;0.60;;;;;;;5.83;67.84;103193.31;5061856;28;20397;-67
2023/02/14 09:32:20;;;;;;;5.13;0.30;;;;;;;5.89;67.44;103189.16;5058494;28;20127;-67
2023/02/14 09:34:48;;;;;;;0.60;0.30;;;;;;;5.95;67.15;103197.22;5058514;28;20049;-67
2023/02/14 09:37:15;;;;;;;1.80;0.40;;;;;;;5.97;67.20;103188.69;5064809;28;20074;-67
2023/02/14 09:39:42;;;;;;;2.35;0.40;;;;;;;6.03;67.09;103188.94;5062356;28;20427;-67
2023/02/14 09:42:43;;;;;;;6.20;0.35;;;;;;;6.11;66.99;103185.75;5062091;28;20427;-67
2023/02/14 09:45:13;;;;;;;3.60;0.38;;;;;;;6.16;66.70;103181.63;5057895;28;20041;-67
2023/02/14 09:47:44;;;;;;;8.35;0.50;;;;;;;6.21;66.60;103177.50;5061951;28;20040;-67
2023/02/14 09:50:20;;;;;;;2.20;0.50;;;;;;;6.23;66.62;103179.34;5062309;28;20040;-67
2023/02/14 09:52:50;;;;;;;1.73;0.30;;;;;;;6.29;66.43;103191.66;5065496;28;20040;-67
2023/02/14 09:55:18;;;;;;;2.55;0.55;;;;;;;6.35;66.40;103183.19;5058377;28;20607;-67
2023/02/14 09:57:59;;;;;;;6.95;0.40;;;;;;;6.43;66.38;103185.28;5058607;28;20048;-67
2023/02/14 10:00:36;;;;;;;4.05;0.52;;;;;;;6.48;65.98;103177.63;5058040;28;20481;-68
2023/02/14 10:03:16;;;;;;;4.80;0.30;;;;;;;6.53;65.83;103174.38;5057624;28;20056;-67
2023/02/14 10:05:55;;;;;;;2.40;0.60;;;;;;;6.59;65.68;103167.66;5058350;28;20047;-67
2023/02/14 10:08:39;;;;;;;3.25;0.55;;;;;;;6.63;65.62;103166.91;5061976;28;20060;-67
2023/02/14 10:11:08;;;;;;;2.47;0.75;;;;;;;6.66;65.30;103164.41;5060712;28;20058;-67
2023/02/14 10:13:40;;;;;;;3.38;0.40;;;;;;;6.70;65.17;103166.31;5059015;28;20041;-67
2023/02/14 10:16:12;;;;;;;2.70;0.40;;;;;;;6.71;65.08;103157.69;5063571;28;20053;-67
2023/02/14 10:18:43;;;;;;;1.38;0.40;;;;;;;6.77;64.78;103163.09;5060678;28;20048;-67
2023/02/14 10:21:22;;;;;;;2.85;0.40;;;;;;;6.78;64.83;103157.09;5059571;28;20587;-67
2023/02/14 10:23:53;;;;;;;3.55;0.77;;;;;;;6.82;64.87;103153.75;5056921;28;20485;-67
2023/02/14 10:26:28;;;;;;;3.20;0.35;;;;;;;6.86;64.38;103166.03;5064083;28;20535;-67
2023/02/14 10:28:55;;;;;;;6.25;0.40;;;;;;;6.89;64.27;103162.66;5061875;28;20052;-67
2023/02/14 10:31:24;;;;;;;5.00;0.40;;;;;;;6.90;64.09;103164.44;5059005;28;20048;-67
2023/02/14 10:33:56;;;;;;;3.70;0.50;;;;;;;6.95;64.11;103165.47;5062126;28;20136;-67
2023/02/14 10:36:44;;;;;;;7.07;0.55;;;;;;;6.96;63.61;103157.72;5061976;28;20049;-69
2023/02/14 10:39:27;;;;;;;1.55;0.40;;;;;;;6.95;63.77;103155.97;5061544;28;20044;-67
2023/02/14 10:42:00;;;;;;;1.45;0.50;;;;;;;6.95;63.91;103155.97;5056551;28;20427;-67
2023/02/14 10:44:42;;;;;;;9.18;0.60;;;;;;;6.96;63.57;103157.72;5060266;28;20051;-67
2023/02/14 10:47:23;;;;;;;8.15;0.77;;;;;;;6.97;63.75;103156.91;5062506;28;20053;-67
2023/02/14 10:49:58;;;;;;;2.42;0.50;;;;;;;6.98;63.72;103161.25;5061478;28;20040;-67
2023/02/14 10:52:37;;;;;;;7.60;0.60;;;;;;;6.99;63.64;103157.81;5056959;28;20049;-68
2023/02/14 10:55:13;;;;;;;7.30;0.50;;;;;;;6.98;63.58;103150.88;5059845;28;20061;-67
2023/02/14 10:57:44;;;;;;;3.97;0.35;;;;;;;7.01;63.70;103154.41;5059764;28;20046;-67
2023/02/14 11:00:21;;;;;;;4.88;0.50;;;;;;;7.01;63.87;103150.09;5063138;28;20067;-67
2023/02/14 11:02:53;;;;;;;3.63;0.50;;;;;;;7.02;63.63;103143.19;5062069;28;20049;-67
2023/02/14 11:05:26;;;;;;;6.28;0.88;;;;;;;6.99;63.63;103137.03;5060260;28;20057;-67
2023/02/14 11:07:57;;;;;;;2.55;0.47;;;;;;;7.01;63.44;103138.81;5060076;28;20045;-67
2023/02/14 11:10:29;;;;;;;3.90;0.50;;;;;;;6.99;63.48;103142.22;5062183;28;20063;-67
2023/02/14 11:12:57;;;;;;;1.98;0.40;;;;;;;6.98;63.36;103137.88;5061288;28;20049;-67
2023/02/14 11:15:27;;;;;;;1.80;0.25;;;;;;;7.01;63.52;103134.50;5059996;28;20049;-67
2023/02/14 11:18:30;;;;;;;2.28;0.30;;;;;;;7.04;63.54;103128.53;5057856;28;20657;-67
2023/02/14 11:21:03;;;;;;;4.03;0.35;;;;;;;7.04;63.22;103125.94;4979020;28;20043;-67
2023/02/14 11:23:36;;;;;;;4.70;0.20;;;;;;;7.05;63.39;103125.97;5050258;28;20407;-67
2023/02/14 11:26:05;;;;;;;1.88;0.50;;;;;;;7.08;63.05;103135.59;5061410;28;20560;-67
2023/02/14 11:28:32;;;;;;;4.45;0.40;;;;;;;7.09;63.35;103125.25;5058472;28;20048;-67
2023/02/14 11:30:59;;;;;;;4.22;0.28;;;;;;;7.11;63.45;103130.47;5061436;28;20404;-67
2023/02/14 11:33:33;;;;;;;2.10;0.50;;;;;;;7.12;63.15;103129.69;5060081;28;20059;-67
2023/02/14 11:36:01;;;;;;;1.88;0.45;;;;;;;7.15;63.14;103132.38;5063156;28;20447;-72
2023/02/14 11:38:33;;;;;;;3.15;0.60;;;;;;;7.15;63.29;103117.66;5059170;28;20427;-73
2023/02/14 11:41:03;;;;;;;6.72;0.30;;;;;;;7.17;63.16;103125.50;5059724;28;20059;-72
2023/02/14 11:43:32;;;;;;;1.80;0.20;;;;;;;7.19;63.39;103116.91;5062669;28;20542;-73
2023/02/14 11:46:12;;;;;;;5.28;0.25;;;;;;;7.20;63.34;103117.81;5060171;28;20050;-73
2023/02/14 11:48:54;;;;;;;3.00;0.30;;;;;;;7.21;63.00;103119.56;5058294;28;20067;-73
2023/02/14 11:51:29;;;;;;;0.70;0.20;;;;;;;7.22;62.96;103108.34;5060711;28;20056;-72
2023/02/14 11:53:59;;;;;;;4.15;0.17;;;;;;;7.22;63.34;103114.41;5061214;28;20435;-73
2023/02/14 11:56:46;;;;;;;2.78;0.20;;;;;;;7.24;63.14;103111.88;5060749;28;20060;-73
2023/02/14 11:59:23;;;;;;;2.63;0.20;;;;;;;7.26;62.77;103110.22;5062558;28;20059;-77
2023/02/14 12:01:50;;;;;;;0.70;0.20;;;;;;;7.26;62.89;103107.63;5061701;28;20052;-76
2023/02/14 12:04:22;;;;;;;1.80;0.28;;;;;;;7.28;63.11;103099.84;5060260;28;20058;-74
2023/02/14 12:06:49;;;;;;;6.53;0.57;;;;;;;7.29;62.71;103099.03;5061149;28;20075;-72